CYS - Cheyenne Rgnl/Jerry Olson Fld

Pirep is a free, collaborative database of all public and private airports located within the United States. All pilots are welcome to contribute, edit, and improve any airport they have local knowledge about, no registration required.
Are you familiar with this airport? Help out other pilots by adding your local knowledge.
Uploaded photos will be licensed under a CC BY-SA 4.0 license. Please only upload photos you have the rights to use.
Tags
Public
Undocu­mented
METAR / TAF
Edit Tags
Food
Camping
Lodging
Car Rental
Bicycles
Swimming
Golfing
Fishing
Hot Springs
Museum
Flying Clubs
Airpark
Upcoming Events
No upcoming events. Is anything happening here soon?
*
*
*

Where exactly on/near the airport is this event taking place?

Is there a webpage with more information for this event?

Who should be contacted for more information?

What is this event all about?

Repeat every
Description
Transient Parking
Fuel Location
Landing & Tie-down Fees
Crew Car Availability
Flying Clubs
WiFi Access
Airport Statistics
Location: Cheyenne, WY
Elevation: 6,159ft
Sectional: Cheyenne
Activation date: Oct 1937
Fuel: 100LL, A, A1 (prices)
Runway 09/27: 9,270ft
Runway 13/31: 6,690ft
Access: Open to the public
Current Weather — VFR
  • Weather data is strictly informational and not for flight planning purposes.
  • METAR
    2024-04-21 22:53:00 MDT
    Ceiling Wind Temperature Dewpoint Weather Visbility
    Sky clear 220° @ 10kt 46°F 33°F N/A 10SM
    Raw: KCYS 220453Z 22010KT 10SM CLR 08/01 A3000 RMK AO2 SLP132 T00830011
  • TAF
    2024-04-21 18:00:00 MDT – 2024-04-21 20:00:00 MDT
    Ceiling Wind Weather Visbility
    Sky clear 200° @ 13kt, gusts 23kt N/A 6SM
    Clouds: Scattered @ 20,000ft
    Raw: KCYS 212342Z 2200/2224 20013G23KT P6SM SCT200 FM220200 22012KT P6SM SCT150 FM220600 27012KT P6SM BKN150 FM221500 34013KT P6SM BKN150 FM221900 29015G25KT P6SM BKN150
  • TAF
    2024-04-21 20:00:00 MDT – 2024-04-22 00:00:00 MDT
    Ceiling Wind Weather Visbility
    Sky clear 220° @ 12kt N/A 6SM
    Clouds: Scattered @ 15,000ft
    Raw: KCYS 212342Z 2200/2224 20013G23KT P6SM SCT200 FM220200 22012KT P6SM SCT150 FM220600 27012KT P6SM BKN150 FM221500 34013KT P6SM BKN150 FM221900 29015G25KT P6SM BKN150
  • TAF
    2024-04-22 00:00:00 MDT – 2024-04-22 09:00:00 MDT
    Ceiling Wind Weather Visbility
    15,000ft 270° @ 12kt N/A 6SM
    Clouds: Broken @ 15,000ft
    Raw: KCYS 212342Z 2200/2224 20013G23KT P6SM SCT200 FM220200 22012KT P6SM SCT150 FM220600 27012KT P6SM BKN150 FM221500 34013KT P6SM BKN150 FM221900 29015G25KT P6SM BKN150
  • TAF
    2024-04-22 09:00:00 MDT – 2024-04-22 13:00:00 MDT
    Ceiling Wind Weather Visbility
    15,000ft 340° @ 13kt N/A 6SM
    Clouds: Broken @ 15,000ft
    Raw: KCYS 212342Z 2200/2224 20013G23KT P6SM SCT200 FM220200 22012KT P6SM SCT150 FM220600 27012KT P6SM BKN150 FM221500 34013KT P6SM BKN150 FM221900 29015G25KT P6SM BKN150
  • TAF
    2024-04-22 13:00:00 MDT – 2024-04-22 18:00:00 MDT
    Ceiling Wind Weather Visbility
    15,000ft 290° @ 15kt, gusts 25kt N/A 6SM
    Clouds: Broken @ 15,000ft
    Raw: KCYS 212342Z 2200/2224 20013G23KT P6SM SCT200 FM220200 22012KT P6SM SCT150 FM220600 27012KT P6SM BKN150 FM221500 34013KT P6SM BKN150 FM221900 29015G25KT P6SM BKN150
Click/tap to add an annotation marker to the map
Airport Webcams
No webcams added yet.
Direct links to live image URLs will be displayed inline on this page. URLs to separate webpages will be linked to.
URL:
Direct links to live image URLs will be displayed inline on this page. URLs to separate webpages will be linked to.
URL:
Remarks
  • Ppr for unsked acr opns when atct clsd call amgr 307-638-3872.
  • Rcr avbl on req fm atct 0600-2200 30 min prior notice required.
  • Bird activity invof arpt.
  • Pilots should avoid f.e. warren afhp at all times.
  • Military: rstd: ang ppr req to prk on mil ramp.
Comments
Leave a comment What was your experience like at this airport?